createdAt,value
2022-10-27T00:01:39.797Z,53.3
2022-10-27T00:07:15.355Z,54
2022-10-27T00:12:51.258Z,53.7
2022-10-27T00:18:29.263Z,53.8
2022-10-27T00:24:07.789Z,53.8
2022-10-27T00:29:42.825Z,53.9
2022-10-27T00:35:38.570Z,53.5
2022-10-27T00:41:40.397Z,53.4
2022-10-27T00:47:13.965Z,53.5
2022-10-27T00:52:51.781Z,53.8
2022-10-27T00:58:26.494Z,53.8
2022-10-27T01:04:18.631Z,53.5
2022-10-27T01:10:02.011Z,53.5
2022-10-27T01:15:36.894Z,53.4
2022-10-27T01:21:35.396Z,53.2
2022-10-27T01:27:14.602Z,52.5
2022-10-27T01:32:55.292Z,51.9
2022-10-27T01:38:38.768Z,51.5
2022-10-27T01:44:16.557Z,50.9
2022-10-27T01:49:54.229Z,51.2
2022-10-27T01:55:29.165Z,52
2022-10-27T02:01:26.921Z,52.5
2022-10-27T02:07:12.569Z,52.9
2022-10-27T02:12:52.935Z,53.3
2022-10-27T02:18:33.566Z,53.3
2022-10-27T02:24:36.354Z,53
2022-10-27T02:30:21.702Z,52.7
2022-10-27T02:36:05.179Z,52.6
2022-10-27T02:42:01.717Z,52.2
2022-10-27T02:47:34.637Z,52
2022-10-27T02:53:12.961Z,52.3
2022-10-27T02:58:56.692Z,52.2
2022-10-27T03:05:13.606Z,52.2
2022-10-27T03:10:49.560Z,51.8
2022-10-27T03:16:32.265Z,51.7
2022-10-27T03:22:15.343Z,51.7
2022-10-27T03:27:55.354Z,51.7
2022-10-27T03:33:35.201Z,51.5
2022-10-27T03:39:19.243Z,51.4
2022-10-27T03:44:54.113Z,51.3
2022-10-27T03:50:29.329Z,51.2
2022-10-27T03:56:07.086Z,51.2
2022-10-27T04:02:07.501Z,50.9
2022-10-27T04:07:51.046Z,50.7
2022-10-27T04:13:30.826Z,50.4
2022-10-27T04:19:06.281Z,50.2
2022-10-27T04:25:05.847Z,50.3
2022-10-27T04:30:40.874Z,50.4
2022-10-27T04:36:15.798Z,50.3
2022-10-27T04:42:26.444Z,50.3
2022-10-27T04:47:59.134Z,50.5
2022-10-27T04:53:52.057Z,51
2022-10-27T05:02:26.729Z,51
2022-10-27T05:08:12.858Z,51
2022-10-27T05:14:17.094Z,50.7
2022-10-27T05:19:52.369Z,50.7
2022-10-27T05:25:48.491Z,50.4
2022-10-27T05:31:39.321Z,50.3
2022-10-27T05:37:22.827Z,50.2
2022-10-27T05:43:32.936Z,50.2
2022-10-27T05:49:15.354Z,49.3
2022-10-27T05:54:57.994Z,49
2022-10-27T06:01:20.310Z,49
2022-10-27T06:07:04.001Z,47.6
2022-10-27T06:12:39.830Z,47.3
2022-10-27T06:18:14.813Z,46.5
2022-10-27T06:24:17.118Z,46.1
2022-10-27T06:29:59.494Z,46
2022-10-27T06:35:45.682Z,46.5
2022-10-27T06:41:42.552Z,45.4
2022-10-27T06:47:15.333Z,45.4
2022-10-27T06:52:56.054Z,45.5
2022-10-27T06:58:32.438Z,40
2022-10-27T07:04:07.505Z,39.8
2022-10-27T07:09:50.410Z,38
2022-10-27T07:15:29.745Z,36.4
2022-10-27T07:21:51.062Z,36.2
2022-10-27T07:27:28.149Z,35.5
2022-10-27T07:33:37.154Z,36.8
2022-10-27T07:39:39.715Z,38
2022-10-27T07:45:22.675Z,38.1
2022-10-27T07:50:58.923Z,34.6
2022-10-27T07:56:38.165Z,36.6
2022-10-27T08:02:14.412Z,37.6
2022-10-27T08:07:53.780Z,39.3
2022-10-27T08:13:50.219Z,39.7
2022-10-27T08:19:25.209Z,37.2
2022-10-27T08:25:16.806Z,40.2
2022-10-27T08:30:53.491Z,43.2
2022-10-27T08:36:30.770Z,40.4
2022-10-27T08:42:27.366Z,39.4
2022-10-27T08:48:00.068Z,35.6
2022-10-27T09:00:10.373Z,37.6
2022-10-27T09:05:53.626Z,44.3
2022-10-27T09:11:34.759Z,41.1
2022-10-27T09:17:12.728Z,34
2022-10-27T09:22:49.166Z,33.6
2022-10-27T09:28:32.928Z,45
2022-10-27T09:34:29.090Z,40.9
2022-10-27T09:40:15.941Z,43.3
2022-10-27T09:45:52.029Z,44
2022-10-27T09:51:31.956Z,39.5
2022-10-27T09:57:06.727Z,41.1
2022-10-27T10:02:48.616Z,36.6
2022-10-27T10:08:45.955Z,35.2
2022-10-27T10:14:21.355Z,36.6
2022-10-27T10:19:56.120Z,35.4
2022-10-27T10:25:38.662Z,36.5
2022-10-27T10:31:13.428Z,40.2
2022-10-27T10:36:48.536Z,35.5
2022-10-27T10:42:23.424Z,39.1
2022-10-27T10:48:01.537Z,40.2
2022-10-27T10:53:43.085Z,39.3
2022-10-27T10:59:18.382Z,39.3
2022-10-27T11:04:53.321Z,38.8
2022-10-27T11:10:32.143Z,40.9
2022-10-27T11:16:07.059Z,42.6
2022-10-27T11:21:45.961Z,45
2022-10-27T11:27:39.866Z,40.1
2022-10-27T11:33:15.077Z,43.7
2022-10-27T11:38:51.043Z,41.3
2022-10-27T11:44:26.202Z,41.7
2022-10-27T11:50:01.560Z,42.6
2022-10-27T11:55:36.618Z,39.1
2022-10-27T12:01:14.183Z,36.3
2022-10-27T12:06:50.332Z,36.2
2022-10-27T12:12:32.841Z,36
2022-10-27T12:18:10.686Z,36.7
2022-10-27T12:23:45.712Z,38.1
2022-10-27T12:29:20.396Z,36.3
2022-10-27T12:34:56.419Z,37.3
2022-10-27T12:40:32.584Z,34.2
2022-10-27T12:46:07.556Z,34.8
2022-10-27T12:52:07.303Z,35.8
2022-10-27T12:57:42.579Z,36.5
2022-10-27T13:03:22.404Z,34.8
2022-10-27T13:08:57.801Z,33.6
2022-10-27T13:14:38.792Z,32.5
2022-10-27T13:20:13.953Z,31.7
2022-10-27T13:25:49.182Z,31.3
2022-10-27T13:31:46.027Z,31.4
2022-10-27T13:37:41.363Z,33.5
2022-10-27T13:43:38.363Z,30.7
2022-10-27T13:49:12.120Z,32.1
2022-10-27T13:54:49.150Z,30.1
2022-10-27T14:00:24.760Z,29.5
2022-10-27T14:06:00.216Z,30.9
2022-10-27T14:11:46.421Z,32.5
2022-10-27T14:17:22.281Z,31.1
2022-10-27T14:23:08.456Z,33.2
2022-10-27T14:28:50.118Z,31.1
2022-10-27T14:34:46.309Z,33.2
2022-10-27T14:40:43.373Z,37.7
2022-10-27T14:46:16.454Z,44.1
2022-10-27T14:51:51.864Z,44.4
2022-10-27T14:57:26.844Z,46.2
2022-10-27T15:03:04.830Z,41
2022-10-27T15:08:42.198Z,42.1
2022-10-27T15:14:20.623Z,42.8
2022-10-27T15:20:31.855Z,43.2
2022-10-27T15:26:06.460Z,37.6
2022-10-27T15:31:52.217Z,37.6
2022-10-27T15:37:46.887Z,40.3
2022-10-27T15:43:43.444Z,39.5
2022-10-27T15:49:16.481Z,41.2
2022-10-27T15:54:56.869Z,40.5
2022-10-27T16:00:33.341Z,40.2
2022-10-27T16:06:09.811Z,38.8
2022-10-27T16:11:52.460Z,34.6
2022-10-27T16:17:38.406Z,33.3
2022-10-27T16:23:17.875Z,36.9
2022-10-27T16:29:00.768Z,39
2022-10-27T16:34:45.031Z,37
2022-10-27T16:40:48.119Z,36.9
2022-10-27T16:46:23.589Z,37
2022-10-27T16:52:19.543Z,32.4
2022-10-27T16:57:59.616Z,33
2022-10-27T17:03:35.799Z,32
2022-10-27T17:09:18.050Z,33.1
2022-10-27T17:15:03.859Z,34.1
2022-10-27T17:20:41.640Z,33.3
2022-10-27T17:26:20.027Z,31.5
2022-10-27T17:32:01.704Z,34
2022-10-27T17:37:36.857Z,34
2022-10-27T17:43:54.751Z,34.3
2022-10-27T17:49:27.737Z,34.9
2022-10-27T17:55:24.039Z,33.4
2022-10-27T18:01:27.775Z,36.7
2022-10-27T18:07:32.231Z,34.5
2022-10-27T18:13:27.769Z,32.7
2022-10-27T18:19:44.404Z,31.4
2022-10-27T18:25:31.737Z,33
2022-10-27T18:31:17.685Z,32.5
2022-10-27T18:36:52.417Z,31.8
2022-10-27T18:42:51.313Z,29.6
2022-10-27T18:48:34.894Z,30.9
2022-10-27T18:54:15.890Z,30.6
2022-10-27T18:59:55.310Z,30.5
2022-10-27T19:05:38.243Z,32
2022-10-27T19:11:13.493Z,33.2
2022-10-27T19:17:01.085Z,34.2
2022-10-27T19:22:41.790Z,34.1
2022-10-27T19:28:26.757Z,34
2022-10-27T19:39:44.092Z,36.3
2022-10-27T19:45:33.123Z,33.8
2022-10-27T19:51:33.785Z,35.8
2022-10-27T19:57:19.106Z,37.7
2022-10-27T20:02:57.743Z,36.6
2022-10-27T20:08:42.001Z,39.7
2022-10-27T20:14:31.977Z,38.9
2022-10-27T20:20:33.177Z,35.5
2022-10-27T20:26:32.306Z,36.5
2022-10-27T20:32:18.235Z,37.1
2022-10-27T20:38:03.512Z,36.4
2022-10-27T20:44:08.477Z,36.7
2022-10-27T20:50:19.625Z,35.8
2022-10-27T20:55:54.297Z,37.1
2022-10-27T21:01:37.860Z,35.7
2022-10-27T21:07:14.961Z,37
2022-10-27T21:13:23.871Z,37.1
2022-10-27T21:19:01.736Z,34.9
2022-10-27T21:24:49.221Z,38.2
2022-10-27T21:30:38.570Z,37.6
2022-10-27T21:36:14.497Z,37.8
2022-10-27T21:42:29.088Z,38.3
2022-10-27T21:48:01.728Z,38.5
2022-10-27T21:53:36.716Z,38.9
2022-10-27T21:59:24.467Z,39.2
2022-10-27T22:04:59.547Z,39.6
2022-10-27T22:10:55.549Z,39.4
2022-10-27T22:16:30.744Z,38.8
2022-10-27T22:22:09.481Z,39.4
2022-10-27T22:27:45.292Z,40.2
2022-10-27T22:33:21.491Z,40.6
2022-10-27T22:38:56.526Z,41.1
2022-10-27T22:44:49.293Z,41.4
2022-10-27T22:50:32.950Z,41.6
2022-10-27T22:56:07.910Z,41.4
2022-10-27T23:01:44.099Z,40.8
2022-10-27T23:07:21.474Z,40.9
2022-10-27T23:12:56.461Z,40.7
2022-10-27T23:19:10.386Z,41
2022-10-27T23:25:37.976Z,41.1
2022-10-27T23:31:19.137Z,41.4
2022-10-27T23:37:14.539Z,41.6
2022-10-27T23:43:11.145Z,41.8
2022-10-27T23:48:43.952Z,42.1
2022-10-27T23:54:24.637Z,42.2
